WEATHER DATA

TODAY
Time Temp. Dewp. Hum. Bar.
00:15 -1.5 -1.9 97 1023.5
00:26 -1.6 -2 97 1023.5
00:36 -1.6 -2 97 1023.6
00:46 -1.7 -2.1 97 1023.6
00:56 -1.7 -2.1 97 1023.6
01:06 -1.7 -2.1 97 1023.5
01:16 -1.8 -2.2 97 1023.4
01:26 -1.8 -2.2 97 1023.4
01:37 -1.9 -2.3 97 1023.4
01:46 -2 -2.4 97 1023.4
01:56 -2.1 -2.5 97 1023.3
02:06 -2.1 -2.5 97 1023.3
02:17 -2.2 -2.6 97 1023.2
02:26 -2.3 -2.7 97 1023.2
02:36 -2.3 -2.7 97 1023.2
02:47 -2.4 -2.8 97 1023.1
02:57 -2.4 -2.8 97 1023.2
03:06 -2.5 -2.9 97 1023.2
03:16 -2.5 -2.9 97 1023.2
03:27 -2.5 -2.9 97 1023.2
03:37 -2.5 -2.9 97 1023.2
03:46 -2.5 -2.9 97 1023.3
03:57 -2.4 -2.8 97 1023.3
04:07 -2.3 -2.7 97 1023.3
04:17 -2.2 -2.6 97 1023.3
04:27 -2.1 -2.3 98 1023.2
04:37 -2 -2.4 97 1023.2
04:47 -1.9 -2.3 97 1023.2
04:57 -1.9 -2.3 97 1023.1
05:07 -1.8 -2.2 97 1023
05:17 -1.8 -2.2 97 1023
05:27 -1.7 -2.1 97 1023
05:37 -1.7 -2.1 97 1023
05:47 -1.7 -2.1 97 1023
05:57 -1.7 -2.1 97 1023
06:07 -1.7 -2.1 97 1023
06:18 -1.7 -2.1 97 1023
06:27 -1.7 -2.1 97 1023.1
06:48 -1.5 -1.7 98 1023.2
06:58 -1.4 -1.6 98 1023.3
07:07 -1.4 -1.6 98 1023.4
07:17 -1.3 -1.5 98 1023.4
07:28 -1.1 -1.3 98 1023.6
07:38 -1 -1.2 98 1023.6
07:47 -0.9 -1.1 98 1023.5
07:58 -0.8 -1 98 1023.6
08:08 -0.7 -0.9 98 1023.7
08:18 -0.6 -0.8 98 1023.7
08:28 -0.4 -0.6 98 1023.7
08:38 -0.2 -0.4 98 1023.9
08:48 -0.2 -0.6 97 1023.9
08:58 -0.1 -0.5 97 1023.9
09:08 0 -0.4 97 1024
09:18 0 -0.4 97 1024
09:28 0 -0.4 97 1024
09:38 0.1 -0.3 97 1024
09:48 0.1 -0.3 97 1023.9
09:58 0.2 -0.2 97 1023.9
10:08 0.4 0 97 1024
10:19 0.6 0.3 98 1024.1
10:28 1.3 1 98 1024.2
10:38 2.7 2.6 99 1024.3
10:49 3.6 3.5 99 1024.3
10:59 3.7 3.3 97 1024.4
11:09 6.2 6.1 99 1024.4
11:18 9.2 9.1 99 1024.4
11:29 10.8 10.3 97 1024.4
11:39 10 8.4 90 1024.4
11:49 8.6 5.9 83 1024.4
11:59 7.1 4.2 82 1024.3
12:09 6.8 1.3 68 1024.3
12:19 8.4 3.1 69 1024.1
12:29 10 6.5 79 1024.1
12:39 9.4 4.6 72 1024.2
12:49 7.6 3.6 76 1024.3
12:59 5.2 2.4 82 1024.2
13:09 3.6 1.3 85 1024.2
13:19 3.3 1.7 89 1024
13:29 3.9 2.6 91 1023.9
13:39 4.7 3.2 90 1023.9
13:50 5.4 3.7 89 1023.7
13:59 6.2 4.4 88 1023.6
14:09 7.4 4.5 82 1023.7
14:20 6.5 2.9 78 1024
14:30 3.8 1.3 84 1023.9
14:39 2.6 0.7 87 1023.7
14:49 2.1 0.6 90 1023.6
15:00 1.9 0.6 91 1023.6
15:10 2.1 0.9 92 1023.4

DAY STATISTIC

2021-04-13
TEMPERATURE
AVERAGE
0.9
HIGH
10.8
11:29
LOW
-2.5
03:06
PRESSURE
AVERAGE
1023.6
HIGH
1024.4
10:59
LOW
1023.0
05:07
DEWPOINT
AVERAGE
0.0
HIGH
10.3
11:29
LOW
-2.9
03:06
HUMIDITY
AVERAGE
94
HIGH
99
10:38
LOW
68
12:09
TEMPERATURE (°C)
LOW
-2.5
HIGH
10.8
AVERAGE
0.9
PRESSURE (hpa)
LOW
1023.0
HIGH
1024.4
AVERAGE
1023.6
DEVICE